Time;durP1;ratioP1;P1;durP2;ratioP2;P2;SDS_P1;SDS_P2;PMS_P1;PMS_P2;Temp;Humidity;BMP_temperature;BMP_pressure;BME280_temperature;BME280_humidity;BME280_pressure;Samples;Min_cycle;Max_cycle;Signal;HPM_P1;HPM_P2
2022/04/04 12:33:17;;;;;;;3.30;2.10;;;;;;;;;;7370916;19;132479;-17
2022/04/04 12:35:51;;;;;;;3.08;2.05;;;;;;;;;;7365378;19;153524;-16
2022/04/04 12:38:27;;;;;;;2.03;1.80;;;;;;;;;;7365020;19;162078;-17
2022/04/04 12:41:08;;;;;;;2.03;1.65;;;;;;;;;;7364413;19;162522;-17
2022/04/04 12:43:40;;;;;;;2.42;1.70;;;;;;;;;;7365555;19;154025;-17
2022/04/04 12:46:26;;;;;;;2.00;1.90;;;;;;;;;;7364888;19;155070;-18
2022/04/04 12:49:20;;;;;;;1.60;1.50;;;;;;;;;;7364422;19;162040;-18
2022/04/04 12:51:56;;;;;;;2.30;1.80;;;;;;;;;;7363122;19;162699;-18
2022/04/04 12:54:28;;;;;;;2.88;2.00;;;;;;;;;;7364818;19;154089;-18
2022/04/04 12:57:00;;;;;;;1.90;1.80;;;;;;;;;;7364435;19;153660;-18
2022/04/04 12:59:33;;;;;;;1.90;1.80;;;;;;;;;;7364278;19;161943;-18
2022/04/04 13:02:06;;;;;;;3.10;2.00;;;;;;;;;;7362384;19;162330;-17
2022/04/04 13:04:41;;;;;;;1.83;1.70;;;;;;;;;;7364288;19;154092;-17
2022/04/04 13:07:20;;;;;;;2.30;1.92;;;;;;;;;;7364439;19;153762;-17
2022/04/04 13:09:53;;;;;;;2.75;1.70;;;;;;;;;;7363903;19;162021;-18
2022/04/04 13:12:29;;;;;;;1.80;1.70;;;;;;;;;;7363156;19;162582;-18
2022/04/04 13:15:01;;;;;;;2.75;1.88;;;;;;;;;;7364065;19;153862;-18
2022/04/04 13:17:37;;;;;;;1.83;1.73;;;;;;;;;;7364093;19;153553;-15
2022/04/04 13:20:13;;;;;;;;;;;;;;;;;;7362923;19;161830;-15
2022/04/04 13:22:44;;;;;;;3.20;2.05;;;;;;;;;;7363322;19;162695;-16
2022/04/04 13:25:16;;;;;;;4.43;2.13;;;;;;;;;;7358775;19;154001;-15
2022/04/04 13:27:48;;;;;;;3.63;1.85;;;;;;;;;;7359699;19;153572;-16
2022/04/04 13:30:19;;;;;;;2.53;1.80;;;;;;;;;;7363835;19;161825;-18
2022/04/04 13:32:50;;;;;;;3.75;2.03;;;;;;;;;;7348505;19;162533;-16
2022/04/04 13:35:24;;;;;;;4.38;1.83;;;;;;;;;;7336397;19;154159;-16
2022/04/04 13:37:56;;;;;;;3.13;2.08;;;;;;;;;;7334345;19;153533;-16
2022/04/04 13:40:28;;;;;;;2.13;1.90;;;;;;;;;;7334361;19;162786;-17
2022/04/04 13:42:59;;;;;;;2.92;1.73;;;;;;;;;;7332514;19;162383;-16
2022/04/04 13:45:33;;;;;;;1.67;1.58;;;;;;;;;;7333775;19;153962;-17
2022/04/04 13:48:04;;;;;;;1.83;1.70;;;;;;;;;;7332217;19;153564;-27
2022/04/04 13:50:38;;;;;;;3.20;1.80;;;;;;;;;;7332422;19;161938;-16
2022/04/04 13:53:09;;;;;;;3.20;1.80;;;;;;;;;;7332491;19;162511;-16
2022/04/04 13:55:41;;;;;;;2.17;1.90;;;;;;;;;;7334260;19;153905;-15
2022/04/04 13:58:13;;;;;;;2.28;1.73;;;;;;;;;;7333003;19;153951;-16
2022/04/04 14:00:46;;;;;;;2.05;1.92;;;;;;;;;;7333652;19;161803;-16
2022/04/04 14:03:17;;;;;;;;;;;;;;;;;;7331909;19;162354;-16
2022/04/04 14:05:55;;;;;;;2.80;1.80;;;;;;;;;;7333789;19;154149;-16
2022/04/04 14:08:27;;;;;;;2.28;2.08;;;;;;;;;;7333654;19;153536;-17
2022/04/04 14:10:59;;;;;;;2.20;2.00;;;;;;;;;;7333262;19;162031;-17
2022/04/04 14:13:31;;;;;;;2.63;2.42;;;;;;;;;;7333225;19;162772;-17
2022/04/04 14:16:05;;;;;;;1.80;1.70;;;;;;;;;;7332355;19;153953;-17
2022/04/04 14:18:37;;;;;;;2.00;1.85;;;;;;;;;;7333582;19;154364;-17
2022/04/04 14:21:12;;;;;;;1.85;1.75;;;;;;;;;;7333215;19;161810;-17
2022/04/04 14:23:44;;;;;;;1.90;1.73;;;;;;;;;;7329656;19;162351;-17
2022/04/04 14:26:15;;;;;;;2.17;1.80;;;;;;;;;;7333585;19;154008;-16
2022/04/04 14:28:47;;;;;;;2.60;1.60;;;;;;;;;;7333301;19;153528;-16
2022/04/04 14:31:18;;;;;;;2.83;1.80;;;;;;;;;;7331789;19;162518;-16
2022/04/04 14:33:50;;;;;;;1.95;1.80;;;;;;;;;;7332726;19;162516;-16
2022/04/04 14:36:24;;;;;;;2.13;2.00;;;;;;;;;;7333296;19;154012;-17
2022/04/04 14:38:56;;;;;;;2.38;1.83;;;;;;;;;;7333030;19;153714;-17
2022/04/04 14:41:27;;;;;;;2.25;1.92;;;;;;;;;;7332580;19;162509;-17
2022/04/04 14:43:59;;;;;;;1.73;1.63;;;;;;;;;;7328603;19;162665;-18
2022/04/04 14:46:31;;;;;;;2.00;1.80;;;;;;;;;;7332315;19;153950;-17
2022/04/04 14:49:02;;;;;;;2.00;1.90;;;;;;;;;;7332695;19;153530;-18
2022/04/04 14:51:36;;;;;;;3.03;1.70;;;;;;;;;;7332331;19;161771;-18
2022/04/04 14:54:08;;;;;;;2.30;1.95;;;;;;;;;;7332241;19;162417;-17
2022/04/04 14:56:40;;;;;;;1.80;1.45;;;;;;;;;;7332723;19;154476;-17
2022/04/04 14:59:11;;;;;;;6.20;1.70;;;;;;;;;;7332485;19;153485;-17
2022/04/04 15:01:42;;;;;;;1.60;1.50;;;;;;;;;;7331591;19;162364;-17
2022/04/04 15:04:13;;;;;;;1.80;1.70;;;;;;;;;;7329314;19;162407;-17
2022/04/04 15:06:47;;;;;;;3.33;2.00;;;;;;;;;;7330876;19;153973;-17
2022/04/04 15:09:22;;;;;;;2.00;1.80;;;;;;;;;;7332163;19;153572;-17
2022/04/04 15:11:53;;;;;;;1.67;1.55;;;;;;;;;;7331801;19;162175;-18
2022/04/04 15:14:24;;;;;;;1.80;1.70;;;;;;;;;;7331247;19;162692;-17
2022/04/04 15:16:55;;;;;;;2.80;1.95;;;;;;;;;;7331880;19;153840;-16
2022/04/04 15:19:27;;;;;;;1.77;1.67;;;;;;;;;;7331585;19;153488;-17
2022/04/04 15:22:02;;;;;;;2.15;1.85;;;;;;;;;;7330238;19;162107;-17
2022/04/04 15:24:34;;;;;;;3.13;1.90;;;;;;;;;;7328727;19;162346;-17
2022/04/04 15:27:06;;;;;;;1.92;1.73;;;;;;;;;;7331257;19;153717;-17
2022/04/04 15:29:40;;;;;;;2.08;1.88;;;;;;;;;;7331412;19;153478;-17
2022/04/04 15:32:11;;;;;;;1.73;1.58;;;;;;;;;;7328746;19;161872;-16
2022/04/04 15:34:42;;;;;;;2.88;1.95;;;;;;;;;;7330636;19;162441;-17
2022/04/04 15:37:20;;;;;;;1.90;1.80;;;;;;;;;;7331114;19;153960;-17
2022/04/04 15:39:52;;;;;;;1.92;1.83;;;;;;;;;;7331340;19;153666;-17
2022/04/04 15:42:23;;;;;;;2.85;1.83;;;;;;;;;;7330560;19;161849;-17
2022/04/04 15:44:54;;;;;;;2.00;1.90;;;;;;;;;;7327902;19;162549;-17
2022/04/04 15:47:26;;;;;;;1.90;1.80;;;;;;;;;;7331039;19;154117;-18
2022/04/04 15:49:57;;;;;;;1.77;1.65;;;;;;;;;;7331013;19;153904;-17
2022/04/04 15:52:31;;;;;;;2.00;1.80;;;;;;;;;;7330492;19;161891;-18
2022/04/04 15:55:03;;;;;;;4.07;2.13;;;;;;;;;;7329950;19;162558;-17
2022/04/04 15:57:34;;;;;;;4.50;2.13;;;;;;;;;;7329913;19;153972;-17
2022/04/04 16:00:11;;;;;;;6.13;1.92;;;;;;;;;;7330333;19;153752;-17
2022/04/04 16:02:42;;;;;;;3.35;1.90;;;;;;;;;;7330076;19;161815;-19
2022/04/04 16:05:14;;;;;;;3.00;2.08;;;;;;;;;;7327031;19;162341;-16
2022/04/04 16:07:48;;;;;;;2.58;1.80;;;;;;;;;;7330333;19;153946;-16
2022/04/04 16:10:19;;;;;;;3.85;1.90;;;;;;;;;;7330412;19;153526;-18
2022/04/04 16:12:50;;;;;;;1.83;1.73;;;;;;;;;;7328525;19;161889;-17
2022/04/04 16:15:22;;;;;;;2.33;2.13;;;;;;;;;;7329617;19;162428;-19
2022/04/04 16:17:54;;;;;;;;;;;;;;;;;;7330364;19;154310;-16
2022/04/04 16:20:26;;;;;;;1.70;1.60;;;;;;;;;;7329993;19;153402;-21
2022/04/04 16:23:00;;;;;;;2.00;1.80;;;;;;;;;;7329246;19;161994;-17
2022/04/04 16:25:31;;;;;;;2.35;1.90;;;;;;;;;;7329266;19;162511;-17
2022/04/04 16:28:05;;;;;;;1.75;1.63;;;;;;;;;;7328396;19;154339;-17
2022/04/04 16:30:40;;;;;;;2.88;2.10;;;;;;;;;;7328267;19;154140;-16
2022/04/04 16:33:11;;;;;;;1.92;1.83;;;;;;;;;;7328798;19;161822;-17
2022/04/04 16:35:45;;;;;;;2.70;1.52;;;;;;;;;;7328749;19;162430;-17
2022/04/04 16:38:20;;;;;;;3.28;1.95;;;;;;;;;;7329263;19;153927;-17
2022/04/04 16:40:51;;;;;;;1.85;1.75;;;;;;;;;;7328939;19;153707;-16
2022/04/04 16:43:23;;;;;;;2.75;2.03;;;;;;;;;;7328352;19;161813;-16
2022/04/04 16:45:54;;;;;;;2.13;1.75;;;;;;;;;;7328412;19;162495;-16
2022/04/04 16:48:25;;;;;;;1.88;1.70;;;;;;;;;;7328845;19;153960;-17
2022/04/04 16:50:57;;;;;;;2.40;2.20;;;;;;;;;;7328875;19;153467;-17
2022/04/04 16:53:30;;;;;;;1.83;1.73;;;;;;;;;;7328378;19;161799;-16
2022/04/04 16:56:04;;;;;;;2.20;1.52;;;;;;;;;;7327018;19;162725;-16
2022/04/04 16:58:36;;;;;;;3.78;2.05;;;;;;;;;;7327550;19;154034;-17
2022/04/04 17:01:07;;;;;;;2.00;1.80;;;;;;;;;;7328575;19;153593;-16
2022/04/04 17:03:39;;;;;;;2.30;1.80;;;;;;;;;;7327287;19;161798;-18
2022/04/04 17:06:10;;;;;;;2.25;1.70;;;;;;;;;;7327633;19;162567;-18
2022/04/04 17:08:44;;;;;;;1.55;1.45;;;;;;;;;;7332423;19;154019;-17
2022/04/04 17:11:15;;;;;;;1.63;1.52;;;;;;;;;;7335089;19;153580;-18
2022/04/04 17:13:47;;;;;;;2.25;2.05;;;;;;;;;;7333723;19;162112;-19
2022/04/04 17:16:18;;;;;;;2.08;1.88;;;;;;;;;;7334746;19;162893;-18
2022/04/04 17:18:49;;;;;;;1.85;1.73;;;;;;;;;;7335195;19;154165;-17
2022/04/04 17:21:21;;;;;;;2.60;1.77;;;;;;;;;;7333751;19;153826;-18
2022/04/04 17:23:55;;;;;;;1.90;1.80;;;;;;;;;;7334227;19;161802;-17
2022/04/04 17:26:26;;;;;;;1.92;1.80;;;;;;;;;;7334580;19;162361;-17
2022/04/04 17:28:57;;;;;;;1.98;1.77;;;;;;;;;;7334913;19;154070;-18
2022/04/04 17:31:28;;;;;;;2.20;2.00;;;;;;;;;;7333970;19;153329;-17
2022/04/04 17:34:01;;;;;;;2.03;1.75;;;;;;;;;;7334204;19;161806;-16
2022/04/04 17:36:33;;;;;;;3.23;1.80;;;;;;;;;;7334365;19;162444;-15
2022/04/04 17:39:07;;;;;;;2.53;1.70;;;;;;;;;;7334774;19;154030;-17
2022/04/04 17:41:38;;;;;;;2.95;1.98;;;;;;;;;;7334619;19;153713;-16
2022/04/04 17:44:10;;;;;;;2.75;1.90;;;;;;;;;;7333645;19;161840;-16
2022/04/04 17:46:41;;;;;;;2.03;1.85;;;;;;;;;;7333583;19;162328;-17
2022/04/04 17:49:13;;;;;;;2.40;2.20;;;;;;;;;;7334348;19;154037;-16
2022/04/04 17:51:45;;;;;;;2.70;2.00;;;;;;;;;;7334292;19;153872;-17
2022/04/04 17:54:21;;;;;;;2.35;2.15;;;;;;;;;;7333891;19;161875;-18
2022/04/04 17:56:53;;;;;;;1.77;1.67;;;;;;;;;;7333320;19;162395;-17
2022/04/04 17:59:26;;;;;;;1.88;1.77;;;;;;;;;;7333933;19;153975;-16
2022/04/04 18:01:59;;;;;;;2.15;1.70;;;;;;;;;;7333788;19;153522;-17
2022/04/04 18:04:32;;;;;;;2.75;1.85;;;;;;;;;;7333062;19;162039;-17
2022/04/04 18:07:04;;;;;;;2.35;1.80;;;;;;;;;;7333382;19;162580;-17
2022/04/04 18:09:38;;;;;;;1.70;1.60;;;;;;;;;;7333736;19;153935;-17
2022/04/04 18:12:10;;;;;;;2.00;1.70;;;;;;;;;;7333758;19;153493;-19
2022/04/04 18:14:41;;;;;;;1.93;1.73;;;;;;;;;;7333302;19;161790;-17
2022/04/04 18:17:13;;;;;;;1.70;1.60;;;;;;;;;;7333338;19;162577;-17
2022/04/04 18:19:45;;;;;;;1.98;1.77;;;;;;;;;;7333144;19;154005;-17
2022/04/04 18:22:16;;;;;;;3.53;2.00;;;;;;;;;;7333006;19;153475;-17
2022/04/04 18:24:50;;;;;;;3.38;1.60;;;;;;;;;;7332521;19;161766;-16
2022/04/04 18:27:21;;;;;;;5.28;1.70;;;;;;;;;;7332949;19;162375;-17
2022/04/04 18:29:52;;;;;;;5.60;2.47;;;;;;;;;;7332702;19;154067;-19
2022/04/04 18:32:24;;;;;;;2.75;2.10;;;;;;;;;;7331190;19;153696;-18
2022/04/04 18:34:55;;;;;;;2.65;2.03;;;;;;;;;;7332966;19;162114;-16
2022/04/04 18:37:26;;;;;;;3.55;2.05;;;;;;;;;;7332714;19;162764;-18
2022/04/04 18:40:00;;;;;;;2.80;1.85;;;;;;;;;;7331715;19;154180;-18
2022/04/04 18:42:32;;;;;;;2.38;1.90;;;;;;;;;;7332792;19;153517;-17
2022/04/04 18:45:05;;;;;;;2.60;2.40;;;;;;;;;;7331706;19;161833;-17
2022/04/04 18:47:37;;;;;;;3.20;2.90;;;;;;;;;;7331932;19;163674;-17
2022/04/04 18:50:10;;;;;;;5.00;2.35;;;;;;;;;;7332737;19;154227;-18
2022/04/04 18:52:41;;;;;;;4.22;2.58;;;;;;;;;;7332481;19;153897;-18
2022/04/04 18:55:15;;;;;;;2.50;2.30;;;;;;;;;;7331900;19;161905;-19
2022/04/04 18:57:46;;;;;;;3.22;2.30;;;;;;;;;;7330948;19;162609;-17
2022/04/04 19:00:19;;;;;;;2.55;2.25;;;;;;;;;;7332096;19;153951;-17
2022/04/04 19:02:50;;;;;;;3.03;2.20;;;;;;;;;;7332116;19;153504;-18
2022/04/04 19:05:22;;;;;;;3.10;2.28;;;;;;;;;;7330102;19;162210;-17
2022/04/04 19:08:00;;;;;;;2.00;1.90;;;;;;;;;;7331747;19;162384;-18
2022/04/04 19:10:36;;;;;;;2.83;2.63;;;;;;;;;;7330844;19;154005;-17
2022/04/04 19:13:07;;;;;;;3.60;2.42;;;;;;;;;;7331886;19;153271;-23
2022/04/04 19:15:39;;;;;;;2.88;2.55;;;;;;;;;;7331953;19;161775;-18
2022/04/04 19:18:10;;;;;;;2.47;2.22;;;;;;;;;;7334445;19;162310;-19
2022/04/04 19:20:42;;;;;;;4.80;2.80;;;;;;;;;;7334185;19;154159;-18
2022/04/04 19:23:14;;;;;;;4.07;3.15;;;;;;;;;;7334745;19;153692;-18
2022/04/04 19:25:48;;;;;;;4.10;3.28;;;;;;;;;;7333621;19;161817;-18
2022/04/04 19:28:19;;;;;;;3.65;2.95;;;;;;;;;;7334153;19;162662;-17
2022/04/04 19:30:53;;;;;;;3.58;3.20;;;;;;;;;;7332081;19;154135;-18
2022/04/04 19:33:25;;;;;;;3.95;3.10;;;;;;;;;;7334393;19;153532;-18
2022/04/04 19:35:56;;;;;;;6.83;3.87;;;;;;;;;;7333900;19;162254;-17
2022/04/04 19:38:28;;;;;;;7.07;4.03;;;;;;;;;;7332342;19;162701;-18
2022/04/04 19:41:03;;;;;;;5.47;3.45;;;;;;;;;;7334163;19;154102;-18
2022/04/04 19:43:34;;;;;;;4.38;3.72;;;;;;;;;;7332610;19;153669;-18
2022/04/04 19:46:07;;;;;;;4.07;3.35;;;;;;;;;;7330347;19;162591;-17
2022/04/04 19:48:39;;;;;;;5.40;3.40;;;;;;;;;;7333807;19;162541;-18
2022/04/04 19:51:10;;;;;;;7.43;3.78;;;;;;;;;;7333775;19;154442;-18
2022/04/04 19:53:43;;;;;;;3.67;2.97;;;;;;;;;;7333723;19;153525;-18
2022/04/04 19:56:18;;;;;;;4.78;3.75;;;;;;;;;;7333233;19;161814;-17
2022/04/04 19:58:49;;;;;;;8.38;5.07;;;;;;;;;;7329110;19;162608;-16
2022/04/04 20:01:23;;;;;;;10.52;6.53;;;;;;;;;;7330523;19;153962;-17
2022/04/04 20:03:55;;;;;;;12.40;6.30;;;;;;;;;;7330517;19;153675;-17
2022/04/04 20:06:26;;;;;;;7.40;4.70;;;;;;;;;;7327717;19;161844;-19
2022/04/04 20:08:57;;;;;;;8.07;5.13;;;;;;;;;;7328781;19;162429;-16
2022/04/04 20:11:32;;;;;;;9.48;4.78;;;;;;;;;;7330012;19;154110;-22
2022/04/04 20:14:04;;;;;;;9.68;4.50;;;;;;;;;;7329928;19;153948;-17
2022/04/04 20:16:36;;;;;;;6.68;3.97;;;;;;;;;;7329799;19;161777;-16
2022/04/04 20:19:07;;;;;;;5.78;4.35;;;;;;;;;;7329760;19;162397;-17
2022/04/04 20:21:39;;;;;;;7.38;4.05;;;;;;;;;;7329719;19;153943;-18
2022/04/04 20:24:10;;;;;;;6.30;4.00;;;;;;;;;;7331555;19;153792;-17
2022/04/04 20:26:44;;;;;;;9.52;5.25;;;;;;;;;;7328513;19;161768;-17
2022/04/04 20:29:15;;;;;;;12.05;4.75;;;;;;;;;;7331639;19;162357;-18
2022/04/04 20:31:48;;;;;;;8.27;4.18;;;;;;;;;;7331301;19;154045;-18
2022/04/04 20:34:22;;;;;;;8.32;3.97;;;;;;;;;;7332501;19;153877;-18
2022/04/04 20:36:53;;;;;;;6.85;4.65;;;;;;;;;;7331884;19;162006;-29
2022/04/04 20:39:25;;;;;;;7.22;3.75;;;;;;;;;;7332321;19;162394;-17
2022/04/04 20:41:59;;;;;;;5.38;3.30;;;;;;;;;;7332652;19;153922;-17
2022/04/04 20:44:31;;;;;;;13.80;4.63;;;;;;;;;;7337819;19;153566;-18
2022/04/04 20:47:02;;;;;;;6.65;3.80;;;;;;;;;;7337666;19;161973;-17
2022/04/04 20:49:34;;;;;;;8.93;3.90;;;;;;;;;;7338919;19;162343;-17
2022/04/04 20:52:07;;;;;;;5.85;3.80;;;;;;;;;;7337413;19;154464;-17
2022/04/04 20:54:38;;;;;;;8.83;4.10;;;;;;;;;;7338804;19;153612;-17
2022/04/04 20:57:13;;;;;;;6.95;3.60;;;;;;;;;;7337327;19;161940;-16
2022/04/04 20:59:44;;;;;;;7.93;4.05;;;;;;;;;;7337577;19;162666;-17
2022/04/04 21:02:17;;;;;;;5.00;3.72;;;;;;;;;;7338043;19;154032;-17
2022/04/04 21:04:48;;;;;;;5.32;3.50;;;;;;;;;;7336000;19;155195;-17
2022/04/04 21:07:19;;;;;;;6.60;3.35;;;;;;;;;;7337200;19;162070;-18
2022/04/04 21:09:52;;;;;;;5.15;3.15;;;;;;;;;;7334853;19;162387;-18
2022/04/04 21:12:26;;;;;;;5.57;3.53;;;;;;;;;;7335338;19;153969;-18
2022/04/04 21:14:59;;;;;;;6.65;3.33;;;;;;;;;;7335103;19;153697;-25
2022/04/04 21:17:30;;;;;;;3.80;3.07;;;;;;;;;;7335032;19;162012;-17
2022/04/04 21:20:04;;;;;;;5.75;3.25;;;;;;;;;;7334683;19;162379;-17
2022/04/04 21:22:36;;;;;;;6.55;3.30;;;;;;;;;;7333934;19;154048;-17
2022/04/04 21:25:08;;;;;;;7.00;3.13;;;;;;;;;;7337725;19;153795;-18
2022/04/04 21:27:43;;;;;;;3.03;2.65;;;;;;;;;;7335191;19;161974;-17
2022/04/04 21:30:15;;;;;;;4.68;3.00;;;;;;;;;;7337680;19;162380;-18
2022/04/04 21:32:46;;;;;;;5.60;3.20;;;;;;;;;;7335306;19;154001;-18
2022/04/04 21:35:18;;;;;;;4.72;2.92;;;;;;;;;;7336289;19;153503;-17
2022/04/04 21:37:49;;;;;;;5.72;3.22;;;;;;;;;;7336945;19;161826;-17
2022/04/04 21:40:21;;;;;;;4.07;2.90;;;;;;;;;;7337130;19;162462;-17
2022/04/04 21:42:55;;;;;;;5.40;2.78;;;;;;;;;;7337223;19;154128;-17
2022/04/04 21:45:26;;;;;;;4.88;2.90;;;;;;;;;;7336480;19;153630;-17
2022/04/04 21:47:58;;;;;;;5.65;2.88;;;;;;;;;;7336083;19;161809;-17
2022/04/04 21:50:30;;;;;;;2.88;2.40;;;;;;;;;;7335735;19;163269;-18
2022/04/04 21:53:01;;;;;;;4.18;2.70;;;;;;;;;;7337409;19;153962;-18
2022/04/04 21:55:33;;;;;;;3.90;2.65;;;;;;;;;;7336622;19;153485;-18
2022/04/04 21:58:07;;;;;;;4.88;2.72;;;;;;;;;;7336480;19;161799;-17
2022/04/04 22:00:38;;;;;;;6.95;3.00;;;;;;;;;;7336936;19;162502;-16
2022/04/04 22:03:11;;;;;;;4.55;2.58;;;;;;;;;;7335619;19;154145;-18
2022/04/04 22:05:43;;;;;;;5.95;2.88;;;;;;;;;;7337189;19;153502;-17
2022/04/04 22:08:14;;;;;;;5.25;2.50;;;;;;;;;;7334182;19;162010;-18
2022/04/04 22:10:46;;;;;;;3.60;2.38;;;;;;;;;;7336156;19;162645;-17
2022/04/04 22:13:23;;;;;;;5.88;2.70;;;;;;;;;;7338111;19;154055;-17
2022/04/04 22:15:54;;;;;;;5.82;2.42;;;;;;;;;;7333592;19;153469;-18
